sensor_id;sensor_type;location;lat;lon;timestamp;pressure;altitude;pressure_sealevel;temperature;humidity
62712;BME280;48772;55.586;37.730;2023-03-13T00:00:56;97951.56;;;-3.83;100.00
62712;BME280;48772;55.586;37.730;2023-03-13T00:03:22;97931.38;;;-3.95;100.00
62712;BME280;48772;55.586;37.730;2023-03-13T00:05:48;97966.16;;;-3.79;100.00
62712;BME280;48772;55.586;37.730;2023-03-13T00:08:14;97959.50;;;-3.85;100.00
62712;BME280;48772;55.586;37.730;2023-03-13T00:10:40;97939.63;;;-3.87;100.00
62712;BME280;48772;55.586;37.730;2023-03-13T00:13:07;97859.97;;;-4.41;100.00
62712;BME280;48772;55.586;37.730;2023-03-13T00:15:34;97961.41;;;-3.71;100.00
62712;BME280;48772;55.586;37.730;2023-03-13T00:18:00;97917.19;;;-4.07;100.00
62712;BME280;48772;55.586;37.730;2023-03-13T00:20:26;97972.97;;;-3.77;100.00
62712;BME280;48772;55.586;37.730;2023-03-13T00:22:52;97952.28;;;-3.80;100.00
62712;BME280;48772;55.586;37.730;2023-03-13T00:25:18;97969.56;;;-3.79;100.00
62712;BME280;48772;55.586;37.730;2023-03-13T00:27:44;97988.25;;;-3.71;100.00
62712;BME280;48772;55.586;37.730;2023-03-13T00:30:10;97976.63;;;-3.81;100.00
62712;BME280;48772;55.586;37.730;2023-03-13T00:32:40;97996.84;;;-3.69;100.00
62712;BME280;48772;55.586;37.730;2023-03-13T00:35:07;97993.72;;;-3.75;100.00
62712;BME280;48772;55.586;37.730;2023-03-13T00:37:33;97990.41;;;-3.79;100.00
62712;BME280;48772;55.586;37.730;2023-03-13T00:39:59;97991.78;;;-3.89;100.00
62712;BME280;48772;55.586;37.730;2023-03-13T00:42:25;97972.09;;;-3.94;100.00
62712;BME280;48772;55.586;37.730;2023-03-13T00:44:50;97969.75;;;-3.99;100.00
62712;BME280;48772;55.586;37.730;2023-03-13T00:47:16;97934.50;;;-4.23;100.00
62712;BME280;48772;55.586;37.730;2023-03-13T00:49:42;98009.69;;;-3.83;100.00
62712;BME280;48772;55.586;37.730;2023-03-13T00:52:08;98030.09;;;-3.74;100.00
62712;BME280;48772;55.586;37.730;2023-03-13T00:54:33;98003.09;;;-3.90;100.00
62712;BME280;48772;55.586;37.730;2023-03-13T00:56:59;97993.91;;;-3.97;100.00
62712;BME280;48772;55.586;37.730;2023-03-13T00:59:25;98029.78;;;-3.85;100.00
62712;BME280;48772;55.586;37.730;2023-03-13T01:01:51;98023.00;;;-3.89;100.00
62712;BME280;48772;55.586;37.730;2023-03-13T01:04:16;98017.13;;;-3.92;100.00
62712;BME280;48772;55.586;37.730;2023-03-13T01:06:42;98001.13;;;-4.02;100.00
62712;BME280;48772;55.586;37.730;2023-03-13T01:09:10;98056.28;;;-3.77;100.00
62712;BME280;48772;55.586;37.730;2023-03-13T01:11:41;98050.75;;;-3.88;100.00
62712;BME280;48772;55.586;37.730;2023-03-13T01:14:13;98055.41;;;-3.77;100.00
62712;BME280;48772;55.586;37.730;2023-03-13T01:16:40;98062.22;;;-3.75;100.00
62712;BME280;48772;55.586;37.730;2023-03-13T01:19:10;98014.41;;;-4.08;100.00
62712;BME280;48772;55.586;37.730;2023-03-13T01:21:36;98061.50;;;-3.95;100.00
62712;BME280;48772;55.586;37.730;2023-03-13T01:24:03;98072.38;;;-3.87;100.00
62712;BME280;48772;55.586;37.730;2023-03-13T01:26:29;98055.22;;;-4.08;100.00
62712;BME280;48772;55.586;37.730;2023-03-13T01:28:55;98080.88;;;-4.01;100.00
62712;BME280;48772;55.586;37.730;2023-03-13T01:31:23;98102.47;;;-3.99;100.00
62712;BME280;48772;55.586;37.730;2023-03-13T01:33:53;98097.69;;;-4.08;100.00
62712;BME280;48772;55.586;37.730;2023-03-13T01:36:20;98111.69;;;-4.10;100.00
62712;BME280;48772;55.586;37.730;2023-03-13T01:38:51;98090.66;;;-4.24;100.00
62712;BME280;48772;55.586;37.730;2023-03-13T01:41:18;98117.75;;;-4.10;100.00
62712;BME280;48772;55.586;37.730;2023-03-13T01:43:45;98115.41;;;-4.16;100.00
62712;BME280;48772;55.586;37.730;2023-03-13T01:46:17;98139.38;;;-4.09;100.00
62712;BME280;48772;55.586;37.730;2023-03-13T01:49:11;98155.13;;;-4.12;100.00
62712;BME280;48772;55.586;37.730;2023-03-13T01:52:19;98153.75;;;-4.19;100.00
62712;BME280;48772;55.586;37.730;2023-03-13T01:55:02;98143.88;;;-4.31;100.00
62712;BME280;48772;55.586;37.730;2023-03-13T01:57:40;98156.25;;;-4.36;100.00
62712;BME280;48772;55.586;37.730;2023-03-13T02:00:13;98108.47;;;-4.72;100.00
62712;BME280;48772;55.586;37.730;2023-03-13T02:02:49;98152.50;;;-4.49;100.00
62712;BME280;48772;55.586;37.730;2023-03-13T02:05:26;98156.03;;;-4.50;100.00
62712;BME280;48772;55.586;37.730;2023-03-13T02:10:29;98174.16;;;-4.49;100.00
62712;BME280;48772;55.586;37.730;2023-03-13T02:12:56;98201.72;;;-4.45;100.00
62712;BME280;48772;55.586;37.730;2023-03-13T02:15:25;98181.34;;;-4.54;100.00
62712;BME280;48772;55.586;37.730;2023-03-13T02:17:52;98200.28;;;-4.52;100.00
62712;BME280;48772;55.586;37.730;2023-03-13T02:20:19;98163.81;;;-4.69;100.00
62712;BME280;48772;55.586;37.730;2023-03-13T02:23:30;98207.78;;;-4.44;100.00
62712;BME280;48772;55.586;37.730;2023-03-13T02:25:50;98186.16;;;-4.65;100.00
62712;BME280;48772;55.586;37.730;2023-03-13T02:28:32;98231.38;;;-4.49;100.00
62712;BME280;48772;55.586;37.730;2023-03-13T02:31:01;98219.66;;;-4.59;100.00
62712;BME280;48772;55.586;37.730;2023-03-13T02:33:31;98190.19;;;-4.78;100.00
62712;BME280;48772;55.586;37.730;2023-03-13T02:36:00;98220.84;;;-4.66;100.00
62712;BME280;48772;55.586;37.730;2023-03-13T02:38:30;98232.66;;;-4.59;100.00
62712;BME280;48772;55.586;37.730;2023-03-13T02:40:59;98162.16;;;-5.11;100.00
62712;BME280;48772;55.586;37.730;2023-03-13T02:43:32;98257.91;;;-4.61;100.00
62712;BME280;48772;55.586;37.730;2023-03-13T02:46:17;98264.66;;;-4.57;100.00
62712;BME280;48772;55.586;37.730;2023-03-13T02:48:48;98266.47;;;-4.59;100.00
62712;BME280;48772;55.586;37.730;2023-03-13T02:51:21;98273.63;;;-4.64;100.00
62712;BME280;48772;55.586;37.730;2023-03-13T02:53:51;98278.78;;;-4.62;100.00
62712;BME280;48772;55.586;37.730;2023-03-13T02:56:21;98212.00;;;-5.02;100.00
62712;BME280;48772;55.586;37.730;2023-03-13T02:58:48;98279.06;;;-4.70;100.00
62712;BME280;48772;55.586;37.730;2023-03-13T03:01:14;98221.78;;;-5.08;100.00
62712;BME280;48772;55.586;37.730;2023-03-13T03:03:41;98259.19;;;-4.91;100.00
62712;BME280;48772;55.586;37.730;2023-03-13T03:06:07;98277.06;;;-4.83;100.00
62712;BME280;48772;55.586;37.730;2023-03-13T03:08:34;98179.50;;;-5.53;100.00
62712;BME280;48772;55.586;37.730;2023-03-13T03:11:01;98301.09;;;-4.78;100.00
62712;BME280;48772;55.586;37.730;2023-03-13T03:13:27;98302.44;;;-4.90;100.00
62712;BME280;48772;55.586;37.730;2023-03-13T03:15:52;98294.38;;;-5.04;100.00
62712;BME280;48772;55.586;37.730;2023-03-13T03:18:18;98304.81;;;-5.05;100.00
62712;BME280;48772;55.586;37.730;2023-03-13T03:20:44;98289.88;;;-5.22;100.00
62712;BME280;48772;55.586;37.730;2023-03-13T03:23:10;98306.34;;;-5.21;100.00
62712;BME280;48772;55.586;37.730;2023-03-13T03:25:36;98307.16;;;-5.21;100.00
62712;BME280;48772;55.586;37.730;2023-03-13T03:28:03;98322.34;;;-5.10;100.00
62712;BME280;48772;55.586;37.730;2023-03-13T03:30:29;98324.13;;;-5.12;100.00
62712;BME280;48772;55.586;37.730;2023-03-13T03:32:56;98294.94;;;-5.40;100.00
62712;BME280;48772;55.586;37.730;2023-03-13T03:35:26;98336.38;;;-5.14;100.00
62712;BME280;48772;55.586;37.730;2023-03-13T03:37:52;98321.34;;;-5.29;100.00
62712;BME280;48772;55.586;37.730;2023-03-13T03:40:18;98356.22;;;-5.13;100.00
62712;BME280;48772;55.586;37.730;2023-03-13T03:42:46;98292.88;;;-5.54;100.00
62712;BME280;48772;55.586;37.730;2023-03-13T03:45:12;98341.41;;;-5.33;100.00
62712;BME280;48772;55.586;37.730;2023-03-13T03:47:38;98358.13;;;-5.18;100.00
62712;BME280;48772;55.586;37.730;2023-03-13T03:50:05;98355.69;;;-5.21;100.00
62712;BME280;48772;55.586;37.730;2023-03-13T03:52:40;98343.91;;;-5.30;100.00
62712;BME280;48772;55.586;37.730;2023-03-13T03:55:06;98359.06;;;-5.19;100.00
62712;BME280;48772;55.586;37.730;2023-03-13T03:57:32;98324.69;;;-5.47;100.00
62712;BME280;48772;55.586;37.730;2023-03-13T03:59:58;98359.06;;;-5.19;100.00
62712;BME280;48772;55.586;37.730;2023-03-13T04:02:24;98351.75;;;-5.31;100.00
62712;BME280;48772;55.586;37.730;2023-03-13T04:04:50;98353.38;;;-5.29;100.00
62712;BME280;48772;55.586;37.730;2023-03-13T04:07:20;98374.59;;;-5.18;100.00
62712;BME280;48772;55.586;37.730;2023-03-13T04:09:47;98382.44;;;-5.19;100.00
62712;BME280;48772;55.586;37.730;2023-03-13T04:12:20;98373.22;;;-5.28;100.00
62712;BME280;48772;55.586;37.730;2023-03-13T04:14:47;98386.09;;;-5.25;100.00
62712;BME280;48772;55.586;37.730;2023-03-13T04:17:14;98372.47;;;-5.30;100.00
62712;BME280;48772;55.586;37.730;2023-03-13T04:19:42;98397.06;;;-5.17;100.00
62712;BME280;48772;55.586;37.730;2023-03-13T04:22:08;98375.72;;;-5.25;100.00
62712;BME280;48772;55.586;37.730;2023-03-13T04:24:35;98389.03;;;-5.11;100.00
62712;BME280;48772;55.586;37.730;2023-03-13T04:27:01;98375.06;;;-5.08;100.00
62712;BME280;48772;55.586;37.730;2023-03-13T04:29:28;98398.47;;;-4.44;100.00
62712;BME280;48772;55.586;37.730;2023-03-13T04:32:02;98403.53;;;-3.99;100.00
62712;BME280;48772;55.586;37.730;2023-03-13T04:34:28;98383.47;;;-3.77;100.00
62712;BME280;48772;55.586;37.730;2023-03-13T04:37:17;98401.78;;;-3.40;100.00
62712;BME280;48772;55.586;37.730;2023-03-13T04:40:01;98418.72;;;-3.50;100.00
62712;BME280;48772;55.586;37.730;2023-03-13T04:42:49;98392.66;;;-4.09;100.00
62712;BME280;48772;55.586;37.730;2023-03-13T04:45:41;98441.78;;;-3.61;100.00
62712;BME280;48772;55.586;37.730;2023-03-13T04:48:33;98429.13;;;-3.11;100.00
62712;BME280;48772;55.586;37.730;2023-03-13T04:51:17;98446.91;;;-2.82;100.00
62712;BME280;48772;55.586;37.730;2023-03-13T04:54:06;98444.16;;;-2.61;100.00
62712;BME280;48772;55.586;37.730;2023-03-13T04:56:50;98460.22;;;-2.51;100.00
62712;BME280;48772;55.586;37.730;2023-03-13T04:59:28;98450.72;;;-2.35;100.00
62712;BME280;48772;55.586;37.730;2023-03-13T05:02:17;98457.94;;;-2.59;100.00
62712;BME280;48772;55.586;37.730;2023-03-13T05:05:12;98455.38;;;-2.23;100.00
62712;BME280;48772;55.586;37.730;2023-03-13T05:07:50;98461.28;;;-2.20;100.00
62712;BME280;48772;55.586;37.730;2023-03-13T05:10:41;98463.31;;;-1.91;100.00
62712;BME280;48772;55.586;37.730;2023-03-13T05:13:23;98479.69;;;-1.87;100.00
62712;BME280;48772;55.586;37.730;2023-03-13T05:16:08;98489.31;;;-1.54;100.00
62712;BME280;48772;55.586;37.730;2023-03-13T05:18:52;98477.53;;;-1.62;100.00
62712;BME280;48772;55.586;37.730;2023-03-13T05:21:44;98483.78;;;-1.65;100.00
62712;BME280;48772;55.586;37.730;2023-03-13T05:24:26;98501.81;;;-1.43;100.00
62712;BME280;48772;55.586;37.730;2023-03-13T05:27:25;98475.16;;;-1.50;100.00
62712;BME280;48772;55.586;37.730;2023-03-13T05:30:02;98519.09;;;-1.24;100.00
62712;BME280;48772;55.586;37.730;2023-03-13T05:32:51;98493.94;;;-0.77;100.00
62712;BME280;48772;55.586;37.730;2023-03-13T05:35:37;98504.03;;;-0.86;100.00
62712;BME280;48772;55.586;37.730;2023-03-13T05:38:32;98479.25;;;-0.79;100.00
62712;BME280;48772;55.586;37.730;2023-03-13T05:41:18;98508.31;;;-0.37;100.00
62712;BME280;48772;55.586;37.730;2023-03-13T05:43:52;98495.84;;;-0.32;100.00
62712;BME280;48772;55.586;37.730;2023-03-13T05:46:30;98505.22;;;-0.13;100.00
62712;BME280;48772;55.586;37.730;2023-03-13T05:49:13;98498.34;;;0.00;100.00
62712;BME280;48772;55.586;37.730;2023-03-13T05:51:52;98525.53;;;0.29;100.00
62712;BME280;48772;55.586;37.730;2023-03-13T05:54:53;98492.22;;;0.31;100.00
62712;BME280;48772;55.586;37.730;2023-03-13T05:57:46;98517.47;;;0.91;100.00
62712;BME280;48772;55.586;37.730;2023-03-13T06:00:32;98515.22;;;0.85;100.00
62712;BME280;48772;55.586;37.730;2023-03-13T06:03:22;98514.03;;;1.19;100.00
62712;BME280;48772;55.586;37.730;2023-03-13T06:05:56;98519.75;;;1.11;100.00
62712;BME280;48772;55.586;37.730;2023-03-13T06:08:37;98535.13;;;1.03;100.00
62712;BME280;48772;55.586;37.730;2023-03-13T06:11:03;98528.28;;;1.15;100.00
62712;BME280;48772;55.586;37.730;2023-03-13T06:13:30;98539.75;;;1.56;100.00
62712;BME280;48772;55.586;37.730;2023-03-13T06:16:01;98544.88;;;1.29;100.00
62712;BME280;48772;55.586;37.730;2023-03-13T06:18:42;98513.47;;;1.28;100.00
62712;BME280;48772;55.586;37.730;2023-03-13T06:21:08;98544.31;;;1.52;100.00
62712;BME280;48772;55.586;37.730;2023-03-13T06:23:35;98506.97;;;1.05;100.00
62712;BME280;48772;55.586;37.730;2023-03-13T06:26:01;98555.00;;;1.77;100.00
62712;BME280;48772;55.586;37.730;2023-03-13T06:28:27;98549.91;;;2.02;100.00
62712;BME280;48772;55.586;37.730;2023-03-13T06:30:53;98548.47;;;2.64;100.00
62712;BME280;48772;55.586;37.730;2023-03-13T06:33:20;98531.66;;;2.13;100.00
62712;BME280;48772;55.586;37.730;2023-03-13T06:35:46;98556.72;;;2.84;100.00
62712;BME280;48772;55.586;37.730;2023-03-13T06:38:11;98535.25;;;2.90;100.00
62712;BME280;48772;55.586;37.730;2023-03-13T06:40:37;98570.06;;;3.45;100.00
62712;BME280;48772;55.586;37.730;2023-03-13T06:43:03;98544.78;;;3.30;100.00
62712;BME280;48772;55.586;37.730;2023-03-13T06:45:29;98554.63;;;3.02;100.00
62712;BME280;48772;55.586;37.730;2023-03-13T06:47:55;98572.16;;;3.40;100.00
62712;BME280;48772;55.586;37.730;2023-03-13T06:50:21;98554.88;;;3.36;100.00
62712;BME280;48772;55.586;37.730;2023-03-13T06:52:47;98562.88;;;3.60;100.00
62712;BME280;48772;55.586;37.730;2023-03-13T06:55:13;98536.16;;;2.64;100.00
62712;BME280;48772;55.586;37.730;2023-03-13T06:57:39;98568.31;;;2.82;100.00
62712;BME280;48772;55.586;37.730;2023-03-13T07:00:06;98578.47;;;3.25;100.00
62712;BME280;48772;55.586;37.730;2023-03-13T07:02:32;98585.13;;;3.31;100.00
62712;BME280;48772;55.586;37.730;2023-03-13T07:04:58;98567.16;;;2.86;100.00
62712;BME280;48772;55.586;37.730;2023-03-13T07:07:24;98569.88;;;3.48;100.00
62712;BME280;48772;55.586;37.730;2023-03-13T07:09:50;98594.19;;;3.65;100.00
62712;BME280;48772;55.586;37.730;2023-03-13T07:12:16;98587.75;;;3.56;100.00
62712;BME280;48772;55.586;37.730;2023-03-13T07:14:44;98590.25;;;4.08;100.00
62712;BME280;48772;55.586;37.730;2023-03-13T07:17:10;98595.78;;;3.67;100.00
62712;BME280;48772;55.586;37.730;2023-03-13T07:19:36;98618.44;;;3.70;100.00
62712;BME280;48772;55.586;37.730;2023-03-13T07:22:02;98520.50;;;3.63;100.00
62712;BME280;48772;55.586;37.730;2023-03-13T07:24:28;98623.81;;;4.42;100.00
62712;BME280;48772;55.586;37.730;2023-03-13T07:26:54;98594.91;;;3.92;100.00
62712;BME280;48772;55.586;37.730;2023-03-13T07:29:20;98621.72;;;3.48;100.00
62712;BME280;48772;55.586;37.730;2023-03-13T07:31:46;98631.84;;;3.54;100.00
62712;BME280;48772;55.586;37.730;2023-03-13T07:34:12;98644.13;;;4.29;100.00
62712;BME280;48772;55.586;37.730;2023-03-13T07:36:40;98644.66;;;4.34;100.00
62712;BME280;48772;55.586;37.730;2023-03-13T07:39:07;98633.28;;;4.57;100.00
62712;BME280;48772;55.586;37.730;2023-03-13T07:41:33;98622.69;;;4.21;100.00
62712;BME280;48772;55.586;37.730;2023-03-13T07:44:00;98642.22;;;4.67;100.00
62712;BME280;48772;55.586;37.730;2023-03-13T07:46:26;98639.00;;;4.15;100.00
62712;BME280;48772;55.586;37.730;2023-03-13T07:48:52;98648.09;;;3.21;100.00
62712;BME280;48772;55.586;37.730;2023-03-13T07:51:22;98661.63;;;2.90;100.00
62712;BME280;48772;55.586;37.730;2023-03-13T07:53:48;98681.13;;;2.33;100.00
62712;BME280;48772;55.586;37.730;2023-03-13T07:56:17;98657.09;;;2.11;100.00
62712;BME280;48772;55.586;37.730;2023-03-13T07:58:44;98683.00;;;1.75;100.00
62712;BME280;48772;55.586;37.730;2023-03-13T08:03:37;98666.13;;;2.07;100.00
62712;BME280;48772;55.586;37.730;2023-03-13T08:06:06;98669.78;;;3.39;100.00
62712;BME280;48772;55.586;37.730;2023-03-13T08:08:33;98696.13;;;3.12;100.00
62712;BME280;48772;55.586;37.730;2023-03-13T08:11:09;98699.88;;;2.55;100.00
62712;BME280;48772;55.586;37.730;2023-03-13T08:13:36;98674.94;;;2.06;100.00
62712;BME280;48772;55.586;37.730;2023-03-13T08:16:15;98691.59;;;2.61;100.00
62712;BME280;48772;55.586;37.730;2023-03-13T08:18:43;98671.59;;;2.85;100.00
62712;BME280;48772;55.586;37.730;2023-03-13T08:21:12;98713.44;;;2.76;100.00
62712;BME280;48772;55.586;37.730;2023-03-13T08:23:38;98639.81;;;1.93;100.00
62712;BME280;48772;55.586;37.730;2023-03-13T08:26:27;98707.63;;;2.02;100.00
62712;BME280;48772;55.586;37.730;2023-03-13T08:29:02;98691.84;;;1.31;100.00
62712;BME280;48772;55.586;37.730;2023-03-13T08:31:37;98678.22;;;2.24;100.00
62712;BME280;48772;55.586;37.730;2023-03-13T08:34:03;98675.31;;;2.00;100.00
62712;BME280;48772;55.586;37.730;2023-03-13T08:36:35;98686.69;;;2.15;100.00
62712;BME280;48772;55.586;37.730;2023-03-13T08:39:04;98703.44;;;3.21;100.00
62712;BME280;48772;55.586;37.730;2023-03-13T08:41:34;98683.25;;;2.81;100.00
62712;BME280;48772;55.586;37.730;2023-03-13T08:44:03;98594.41;;;1.91;100.00
62712;BME280;48772;55.586;37.730;2023-03-13T08:46:33;98670.63;;;1.77;100.00
62712;BME280;48772;55.586;37.730;2023-03-13T08:49:00;98731.75;;;1.51;100.00
62712;BME280;48772;55.586;37.730;2023-03-13T08:51:27;98699.28;;;1.23;100.00
62712;BME280;48772;55.586;37.730;2023-03-13T08:53:55;98683.34;;;1.55;100.00
62712;BME280;48772;55.586;37.730;2023-03-13T08:56:26;98742.38;;;2.35;100.00
62712;BME280;48772;55.586;37.730;2023-03-13T08:58:57;98746.16;;;2.86;100.00
62712;BME280;48772;55.586;37.730;2023-03-13T09:01:27;98684.97;;;2.14;100.00
62712;BME280;48772;55.586;37.730;2023-03-13T09:03:54;98738.75;;;3.05;100.00
62712;BME280;48772;55.586;37.730;2023-03-13T09:06:21;98687.69;;;2.26;100.00
62712;BME280;48772;55.586;37.730;2023-03-13T09:08:48;98701.34;;;2.33;100.00
62712;BME280;48772;55.586;37.730;2023-03-13T09:11:17;98737.69;;;2.95;100.00
62712;BME280;48772;55.586;37.730;2023-03-13T09:13:49;98761.69;;;2.76;100.00
62712;BME280;48772;55.586;37.730;2023-03-13T09:16:21;98746.13;;;2.17;100.00
62712;BME280;48772;55.586;37.730;2023-03-13T09:18:48;98733.66;;;2.89;100.00
62712;BME280;48772;55.586;37.730;2023-03-13T09:21:18;98778.75;;;2.97;100.00
62712;BME280;48772;55.586;37.730;2023-03-13T09:23:44;98750.00;;;2.94;100.00
62712;BME280;48772;55.586;37.730;2023-03-13T09:26:11;98742.84;;;2.28;100.00
62712;BME280;48772;55.586;37.730;2023-03-13T09:28:37;98741.25;;;2.25;100.00
62712;BME280;48772;55.586;37.730;2023-03-13T09:31:10;98719.53;;;1.94;100.00
62712;BME280;48772;55.586;37.730;2023-03-13T09:33:36;98768.00;;;2.04;100.00
62712;BME280;48772;55.586;37.730;2023-03-13T09:36:03;98739.72;;;2.07;100.00
62712;BME280;48772;55.586;37.730;2023-03-13T09:38:29;98756.56;;;3.28;100.00
62712;BME280;48772;55.586;37.730;2023-03-13T09:41:01;98745.72;;;1.52;100.00
62712;BME280;48772;55.586;37.730;2023-03-13T09:43:49;98761.16;;;1.42;100.00
62712;BME280;48772;55.586;37.730;2023-03-13T09:49:02;98785.94;;;0.76;100.00
62712;BME280;48772;55.586;37.730;2023-03-13T09:51:39;98816.81;;;0.56;100.00
62712;BME280;48772;55.586;37.730;2023-03-13T09:54:08;98804.06;;;0.65;100.00
62712;BME280;48772;55.586;37.730;2023-03-13T09:56:44;98818.66;;;0.38;100.00
62712;BME280;48772;55.586;37.730;2023-03-13T09:59:32;98774.31;;;0.34;100.00
62712;BME280;48772;55.586;37.730;2023-03-13T10:02:04;98810.06;;;0.67;100.00
62712;BME280;48772;55.586;37.730;2023-03-13T10:04:48;98824.69;;;0.56;100.00
62712;BME280;48772;55.586;37.730;2023-03-13T10:07:16;98809.75;;;1.04;100.00
62712;BME280;48772;55.586;37.730;2023-03-13T10:09:45;98811.44;;;1.36;100.00
62712;BME280;48772;55.586;37.730;2023-03-13T10:12:18;98802.34;;;1.71;100.00
62712;BME280;48772;55.586;37.730;2023-03-13T10:15:16;98797.41;;;2.80;100.00
62712;BME280;48772;55.586;37.730;2023-03-13T10:17:39;98757.75;;;2.55;100.00
62712;BME280;48772;55.586;37.730;2023-03-13T10:20:27;98826.22;;;1.82;100.00
62712;BME280;48772;55.586;37.730;2023-03-13T10:23:14;98783.66;;;1.01;100.00
62712;BME280;48772;55.586;37.730;2023-03-13T10:25:41;98799.22;;;0.73;100.00
62712;BME280;48772;55.586;37.730;2023-03-13T10:28:15;98835.59;;;0.64;100.00
62712;BME280;48772;55.586;37.730;2023-03-13T10:30:52;98771.34;;;0.24;100.00
62712;BME280;48772;55.586;37.730;2023-03-13T10:33:26;98809.88;;;0.55;100.00
62712;BME280;48772;55.586;37.730;2023-03-13T10:38:34;98864.19;;;1.16;100.00
62712;BME280;48772;55.586;37.730;2023-03-13T10:41:18;98739.97;;;0.23;100.00
62712;BME280;48772;55.586;37.730;2023-03-13T10:43:54;98869.06;;;0.43;100.00
62712;BME280;48772;55.586;37.730;2023-03-13T10:46:25;98786.47;;;0.19;100.00
62712;BME280;48772;55.586;37.730;2023-03-13T10:48:53;98848.09;;;0.43;100.00
62712;BME280;48772;55.586;37.730;2023-03-13T10:51:22;98858.63;;;-0.08;100.00
62712;BME280;48772;55.586;37.730;2023-03-13T10:53:49;98856.47;;;-0.17;100.00
62712;BME280;48772;55.586;37.730;2023-03-13T10:56:29;98822.41;;;-0.17;100.00
62712;BME280;48772;55.586;37.730;2023-03-13T10:58:56;98817.47;;;-0.06;100.00
62712;BME280;48772;55.586;37.730;2023-03-13T11:01:27;98846.59;;;0.22;100.00
62712;BME280;48772;55.586;37.730;2023-03-13T11:03:55;98895.75;;;0.17;100.00
62712;BME280;48772;55.586;37.730;2023-03-13T11:06:30;98876.13;;;-0.09;100.00
62712;BME280;48772;55.586;37.730;2023-03-13T11:09:09;98883.72;;;-0.04;100.00
62712;BME280;48772;55.586;37.730;2023-03-13T11:11:53;98816.38;;;-0.53;100.00
62712;BME280;48772;55.586;37.730;2023-03-13T11:14:22;98896.31;;;-0.11;100.00
62712;BME280;48772;55.586;37.730;2023-03-13T11:16:53;98917.19;;;-0.09;100.00
62712;BME280;48772;55.586;37.730;2023-03-13T11:27:09;98858.41;;;-0.04;100.00
62712;BME280;48772;55.586;37.730;2023-03-13T11:30:10;98901.56;;;0.07;100.00
62712;BME280;48772;55.586;37.730;2023-03-13T11:32:42;98906.66;;;0.10;100.00
62712;BME280;48772;55.586;37.730;2023-03-13T11:38:18;98883.81;;;-0.06;100.00
62712;BME280;48772;55.586;37.730;2023-03-13T11:46:18;98928.38;;;0.29;100.00
62712;BME280;48772;55.586;37.730;2023-03-13T11:49:16;98899.94;;;0.21;100.00
62712;BME280;48772;55.586;37.730;2023-03-13T11:55:06;98877.13;;;2.11;100.00
62712;BME280;48772;55.586;37.730;2023-03-13T11:58:04;98879.56;;;2.57;100.00
62712;BME280;48772;55.586;37.730;2023-03-13T12:00:36;98923.53;;;1.96;100.00
62712;BME280;48772;55.586;37.730;2023-03-13T12:03:30;98919.84;;;1.54;100.00
62712;BME280;48772;55.586;37.730;2023-03-13T12:06:01;98946.28;;;1.20;100.00
62712;BME280;48772;55.586;37.730;2023-03-13T12:08:40;98925.13;;;0.90;100.00
62712;BME280;48772;55.586;37.730;2023-03-13T12:11:15;98901.97;;;0.49;100.00
62712;BME280;48772;55.586;37.730;2023-03-13T12:13:51;98936.69;;;1.03;100.00
62712;BME280;48772;55.586;37.730;2023-03-13T12:16:32;98955.72;;;1.07;100.00
62712;BME280;48772;55.586;37.730;2023-03-13T12:19:01;98915.97;;;1.61;100.00
62712;BME280;48772;55.586;37.730;2023-03-13T12:21:31;98919.88;;;1.99;100.00
62712;BME280;48772;55.586;37.730;2023-03-13T12:26:40;98941.03;;;2.84;100.00
62712;BME280;48772;55.586;37.730;2023-03-13T12:29:42;98930.28;;;3.58;100.00
62712;BME280;48772;55.586;37.730;2023-03-13T12:40:09;98953.16;;;1.84;100.00
62712;BME280;48772;55.586;37.730;2023-03-13T12:45:17;98911.06;;;0.91;100.00
62712;BME280;48772;55.586;37.730;2023-03-13T12:56:32;98937.56;;;0.37;100.00
62712;BME280;48772;55.586;37.730;2023-03-13T13:01:52;98870.44;;;0.50;100.00
62712;BME280;48772;55.586;37.730;2023-03-13T13:04:25;98909.31;;;0.59;100.00
62712;BME280;48772;55.586;37.730;2023-03-13T13:07:05;98922.78;;;0.69;100.00
62712;BME280;48772;55.586;37.730;2023-03-13T13:09:38;98959.59;;;0.50;100.00
62712;BME280;48772;55.586;37.730;2023-03-13T13:12:25;98961.75;;;1.09;100.00
62712;BME280;48772;55.586;37.730;2023-03-13T13:14:59;98955.97;;;1.50;100.00
62712;BME280;48772;55.586;37.730;2023-03-13T13:23:29;98991.84;;;2.27;100.00
62712;BME280;48772;55.586;37.730;2023-03-13T13:37:03;98868.69;;;0.99;100.00
62712;BME280;48772;55.586;37.730;2023-03-13T13:39:52;99009.00;;;2.19;100.00
62712;BME280;48772;55.586;37.730;2023-03-13T13:47:44;98933.19;;;2.41;100.00
62712;BME280;48772;55.586;37.730;2023-03-13T13:50:23;98960.53;;;2.38;100.00
62712;BME280;48772;55.586;37.730;2023-03-13T13:52:50;98957.38;;;2.61;100.00
62712;BME280;48772;55.586;37.730;2023-03-13T13:58:05;99010.19;;;2.13;100.00
62712;BME280;48772;55.586;37.730;2023-03-13T14:00:57;99011.06;;;1.98;100.00
62712;BME280;48772;55.586;37.730;2023-03-13T14:03:30;98951.63;;;1.34;100.00
62712;BME280;48772;55.586;37.730;2023-03-13T14:06:02;99035.63;;;1.66;100.00
62712;BME280;48772;55.586;37.730;2023-03-13T14:08:40;98937.06;;;1.28;100.00
62712;BME280;48772;55.586;37.730;2023-03-13T14:14:17;98963.91;;;0.68;100.00
62712;BME280;48772;55.586;37.730;2023-03-13T14:19:29;99029.41;;;0.70;100.00
62712;BME280;48772;55.586;37.730;2023-03-13T14:22:15;98985.19;;;0.79;100.00
62712;BME280;48772;55.586;37.730;2023-03-13T14:24:41;98959.94;;;0.94;100.00
62712;BME280;48772;55.586;37.730;2023-03-13T14:27:15;98958.94;;;1.12;100.00
62712;BME280;48772;55.586;37.730;2023-03-13T14:30:01;98936.91;;;0.99;100.00
62712;BME280;48772;55.586;37.730;2023-03-13T14:32:28;98999.09;;;1.62;100.00
62712;BME280;48772;55.586;37.730;2023-03-13T14:34:58;98933.50;;;1.29;100.00
62712;BME280;48772;55.586;37.730;2023-03-13T14:37:40;98983.31;;;1.46;100.00